Time;durP1;ratioP1;P1;durP2;ratioP2;P2;SDS_P1;SDS_P2;PMS_P1;PMS_P2;Temp;Humidity;BMP_temperature;BMP_pressure;BME280_temperature;BME280_humidity;BME280_pressure;Samples;Min_cycle;Max_cycle;Signal;HPM_P1;HPM_P2
2022/06/30 00:01:04;;;;;;;10.23;8.13;;;;;;;;;;5112647;28;20476;-70
2022/06/30 00:03:30;;;;;;;13.45;7.97;;;;;;;;;;5112458;28;20040;-71
2022/06/30 00:05:56;;;;;;;10.07;8.10;;;;;;;;;;5112750;28;20031;-69
2022/06/30 00:08:22;;;;;;;11.32;7.93;;;;;;;;;;5112200;28;20184;-69
2022/06/30 00:10:48;;;;;;;9.48;8.25;;;;;;;;;;5112640;28;20035;-70
2022/06/30 00:13:15;;;;;;;16.05;7.50;;;;;;;;;;5077108;28;20040;-70
2022/06/30 00:15:40;;;;;;;8.93;8.02;;;;;;;;;;5112594;28;20039;-69
2022/06/30 00:18:06;;;;;;;15.00;8.27;;;;;;;;;;5093987;28;20031;-69
2022/06/30 00:20:32;;;;;;;8.65;7.75;;;;;;;;;;5112437;28;20161;-69
2022/06/30 00:22:58;;;;;;;15.52;8.27;;;;;;;;;;5112573;28;20045;-69
2022/06/30 00:25:24;;;;;;;12.48;8.60;;;;;;;;;;5111956;28;20085;-70
2022/06/30 00:27:50;;;;;;;12.07;8.70;;;;;;;;;;5112393;28;20105;-70
2022/06/30 00:30:17;;;;;;;9.65;8.60;;;;;;;;;;5112004;28;20412;-69
2022/06/30 00:32:43;;;;;;;10.30;8.80;;;;;;;;;;5110002;28;20050;-70
2022/06/30 00:35:09;;;;;;;18.13;10.02;;;;;;;;;;5099822;28;20514;-69
2022/06/30 00:37:35;;;;;;;24.30;9.77;;;;;;;;;;5091755;28;20044;-69
2022/06/30 00:40:01;;;;;;;20.30;9.75;;;;;;;;;;5091617;28;20042;-69
2022/06/30 00:42:29;;;;;;;26.08;12.13;;;;;;;;;;5091730;28;20191;-69
2022/06/30 00:44:55;;;;;;;17.70;10.27;;;;;;;;;;5091780;28;20521;-69
2022/06/30 00:47:20;;;;;;;16.92;11.98;;;;;;;;;;5091467;28;20051;-69
2022/06/30 00:49:46;;;;;;;17.30;12.10;;;;;;;;;;5091365;28;20039;-70
2022/06/30 00:52:13;;;;;;;14.07;12.23;;;;;;;;;;5091272;28;20100;-69
2022/06/30 00:54:39;;;;;;;25.00;11.95;;;;;;;;;;5091336;28;20173;-69
2022/06/30 00:57:05;;;;;;;20.83;11.60;;;;;;;;;;5091226;28;20513;-69
2022/06/30 00:59:31;;;;;;;13.57;9.70;;;;;;;;;;5090029;28;20032;-70
2022/06/30 01:01:58;;;;;;;12.43;10.05;;;;;;;;;;5091223;28;20043;-70
2022/06/30 01:04:24;;;;;;;19.63;8.52;;;;;;;;;;5089646;28;20043;-69
2022/06/30 01:06:50;;;;;;;13.18;8.98;;;;;;;;;;5090075;28;20043;-69
2022/06/30 01:12:41;;;;;;;9.27;7.45;;;;;;;;;;5089619;28;20522;-68
2022/06/30 01:14:47;;;;;;;10.65;7.20;;;;;;;;;;5090957;28;20102;-69
2022/06/30 01:17:13;;;;;;;19.55;8.05;;;;;;;;;;5089642;28;20035;-70
2022/06/30 01:19:50;;;;;;;10.27;7.13;;;;;;;;;;5090888;28;20096;-70
2022/06/30 01:22:16;;;;;;;15.45;7.05;;;;;;;;;;5090802;28;20035;-70
2022/06/30 01:24:42;;;;;;;9.82;7.57;;;;;;;;;;5090758;28;20047;-69
2022/06/30 01:27:08;;;;;;;8.02;6.72;;;;;;;;;;5089006;28;20048;-70
2022/06/30 01:29:33;;;;;;;9.25;6.43;;;;;;;;;;5090805;28;20035;-70
2022/06/30 01:31:59;;;;;;;14.02;6.30;;;;;;;;;;5090884;28;20046;-69
2022/06/30 01:34:25;;;;;;;15.85;6.15;;;;;;;;;;5072301;28;20038;-69
2022/06/30 01:36:51;;;;;;;14.00;5.95;;;;;;;;;;5090618;28;20036;-69
2022/06/30 01:39:17;;;;;;;19.60;7.13;;;;;;;;;;5090267;28;20075;-70
2022/06/30 01:41:43;;;;;;;15.35;6.20;;;;;;;;;;5090456;28;20034;-69
2022/06/30 01:44:11;;;;;;;13.25;7.78;;;;;;;;;;5090121;28;20036;-70
2022/06/30 01:46:38;;;;;;;23.58;7.43;;;;;;;;;;5090531;28;20035;-69
2022/06/30 01:49:03;;;;;;;23.00;7.32;;;;;;;;;;5090382;28;20032;-69
2022/06/30 01:51:29;;;;;;;15.55;7.93;;;;;;;;;;5090188;28;20039;-69
2022/06/30 01:53:56;;;;;;;10.13;6.65;;;;;;;;;;5088888;28;20118;-69
2022/06/30 01:56:22;;;;;;;13.10;7.20;;;;;;;;;;5090192;28;20032;-69
2022/06/30 01:58:48;;;;;;;10.52;6.90;;;;;;;;;;5090076;28;20044;-70
2022/06/30 02:01:14;;;;;;;11.15;7.40;;;;;;;;;;5089979;28;20402;-71
2022/06/30 02:03:40;;;;;;;9.70;7.20;;;;;;;;;;5090035;28;20039;-68
2022/06/30 02:06:07;;;;;;;11.88;6.80;;;;;;;;;;5089958;28;20035;-69
2022/06/30 02:08:33;;;;;;;14.02;6.50;;;;;;;;;;5090101;28;20088;-70
2022/06/30 02:10:59;;;;;;;12.88;6.63;;;;;;;;;;5090231;28;20032;-70
2022/06/30 02:13:24;;;;;;;10.35;6.97;;;;;;;;;;5089888;28;20119;-70
2022/06/30 02:16:11;;;;;;;11.35;6.38;;;;;;;;;;5074923;28;20134;-71
2022/06/30 02:18:37;;;;;;;11.68;6.43;;;;;;;;;;5089669;28;20326;-70
2022/06/30 02:21:02;;;;;;;10.05;6.43;;;;;;;;;;5089872;28;20671;-69
2022/06/30 02:23:28;;;;;;;10.98;6.35;;;;;;;;;;5089600;28;20111;-70
